Time;durP1;ratioP1;P1;durP2;ratioP2;P2;SDS_P1;SDS_P2;PMS_P1;PMS_P2;Temp;Humidity;BMP_temperature;BMP_pressure;BME280_temperature;BME280_humidity;BME280_pressure;Samples;Min_cycle;Max_cycle;Signal;HPM_P1;HPM_P2
2021/12/10 00:01:12;;;;;;;7.40;5.15;;;3.00;99.90;;;;;;5032240;28;20044;-72
2021/12/10 00:04:19;;;;;;;8.40;3.17;;;2.90;99.90;;;;;;5031820;28;20041;-72
2021/12/10 00:07:25;;;;;;;3.35;2.47;;;2.90;99.90;;;;;;5028070;28;20045;-71
2021/12/10 00:10:37;;;;;;;3.13;1.90;;;2.90;99.90;;;;;;5026946;28;20041;-72
2021/12/10 00:13:44;;;;;;;4.40;2.60;;;2.80;99.90;;;;;;5032019;28;20066;-72
2021/12/10 00:16:48;;;;;;;3.45;1.80;;;2.70;99.90;;;;;;5028457;28;20033;-71
2021/12/10 00:19:56;;;;;;;5.00;3.58;;;2.70;99.90;;;;;;5029522;28;20033;-72
2021/12/10 00:23:06;;;;;;;8.43;5.15;;;2.50;99.90;;;;;;5031698;28;20041;-71
2021/12/10 00:26:10;;;;;;;10.80;6.20;;;2.30;99.90;;;;;;5026630;28;20049;-72
2021/12/10 00:29:17;;;;;;;9.85;5.07;;;2.10;99.90;;;;;;5025291;28;20041;-72
2021/12/10 00:32:33;;;;;;;7.15;4.43;;;2.00;99.90;;;;;;5031892;28;20480;-72
2021/12/10 00:35:39;;;;;;;8.38;4.47;;;1.90;99.90;;;;;;5031286;28;20033;-72
2021/12/10 00:38:44;;;;;;;7.75;4.82;;;1.80;99.90;;;;;;5027696;28;20049;-72
2021/12/10 00:41:49;;;;;;;6.63;4.85;;;1.80;99.90;;;;;;5030788;28;20045;-72
2021/12/10 00:44:54;;;;;;;10.77;5.90;;;1.80;99.90;;;;;;5030936;28;20053;-72
2021/12/10 00:47:58;;;;;;;8.48;5.35;;;1.80;99.90;;;;;;5031038;28;20065;-72
2021/12/10 00:51:05;;;;;;;8.07;5.75;;;1.70;99.90;;;;;;5032120;28;20045;-72
2021/12/10 00:54:11;;;;;;;8.00;5.50;;;1.70;99.90;;;;;;5031268;28;20409;-72
2021/12/10 00:57:15;;;;;;;30.05;9.73;;;1.70;99.90;;;;;;5023903;28;20045;-71
2021/12/10 01:00:27;;;;;;;12.95;8.52;;;1.50;99.90;;;;;;5029410;28;20052;-71
2021/12/10 01:03:39;;;;;;;13.38;8.27;;;1.30;99.90;;;;;;5031467;28;20056;-71
2021/12/10 01:06:46;;;;;;;13.55;8.32;;;1.30;99.90;;;;;;5027288;28;20056;-71
2021/12/10 01:09:53;;;;;;;15.60;8.82;;;1.20;99.90;;;;;;5028274;28;21214;-71
2021/12/10 01:13:00;;;;;;;147.45;17.52;;;1.30;99.90;;;;;;5031453;28;20044;-72
2021/12/10 01:26:24;;;;;;;17.63;9.52;;;1.00;99.90;;;;;;5030524;28;20044;-72
2021/12/10 01:29:35;;;;;;;16.15;10.05;;;1.10;99.90;;;;;;5027039;28;20412;-71
2021/12/10 01:32:44;;;;;;;28.70;13.07;;;1.10;99.90;;;;;;5026253;28;20045;-71
2021/12/10 01:35:53;;;;;;;19.50;11.60;;;1.20;99.90;;;;;;5028290;28;20052;-72
2021/12/10 01:38:57;;;;;;;14.38;8.73;;;1.00;99.90;;;;;;5028641;28;20133;-71
2021/12/10 01:42:15;;;;;;;12.30;7.97;;;1.00;99.90;;;;;;5026252;28;20040;-71
2021/12/10 01:45:27;;;;;;;11.25;6.70;;;1.10;99.90;;;;;;5038309;28;20048;-71
2021/12/10 01:48:40;;;;;;;9.75;6.38;;;1.10;99.90;;;;;;5029907;28;20044;-72
2021/12/10 01:51:44;;;;;;;10.48;6.53;;;1.20;99.90;;;;;;5026787;28;20046;-71
2021/12/10 01:54:53;;;;;;;12.88;7.72;;;1.20;99.90;;;;;;5030436;28;20060;-71
2021/12/10 01:57:59;;;;;;;10.25;6.00;;;1.20;99.90;;;;;;5028816;28;20049;-71
2021/12/10 02:01:07;;;;;;;9.40;5.93;;;1.20;99.90;;;;;;5029559;28;20669;-72
2021/12/10 02:04:16;;;;;;;10.55;5.80;;;1.20;99.90;;;;;;5028701;28;20057;-71
2021/12/10 02:07:25;;;;;;;6.72;4.38;;;1.30;99.90;;;;;;5030676;28;20483;-71
2021/12/10 02:10:29;;;;;;;7.75;4.47;;;1.30;99.90;;;;;;5028016;28;20041;-71
2021/12/10 02:13:34;;;;;;;5.90;4.20;;;1.30;99.90;;;;;;5030120;28;20045;-72
2021/12/10 02:16:38;;;;;;;10.20;5.72;;;1.30;99.90;;;;;;5026787;28;20045;-72
2021/12/10 02:19:42;;;;;;;7.60;4.50;;;1.40;99.90;;;;;;5029856;28;20505;-72
2021/12/10 02:22:48;;;;;;;9.35;5.22;;;1.30;99.90;;;;;;5029440;28;20037;-71
2021/12/10 02:25:52;;;;;;;14.25;8.30;;;1.30;99.90;;;;;;5029563;28;20045;-70
2021/12/10 02:28:57;;;;;;;722.83;51.67;;;1.40;99.90;;;;;;5029683;28;20044;-71
2021/12/10 02:32:02;;;;;;;1709.78;132.55;;;0.80;99.90;;;;;;5028623;28;20060;-71
2021/12/10 02:35:10;;;;;;;1999.90;160.40;;;0.60;99.90;;;;;;5029522;28;20038;-71
2021/12/10 02:38:17;;;;;;;1783.15;133.05;;;0.40;99.90;;;;;;5028185;28;20049;-71
2021/12/10 02:41:28;;;;;;;497.02;44.70;;;0.30;99.90;;;;;;5028532;28;20060;-71
2021/12/10 02:44:33;;;;;;;689.90;51.58;;;0.40;99.90;;;;;;5023464;28;20052;-71
2021/12/10 02:47:37;;;;;;;756.05;54.63;;;0.50;99.90;;;;;;5025694;28;20045;-71
2021/12/10 02:50:44;;;;;;;1134.38;86.30;;;0.50;99.90;;;;;;5033440;28;20045;-71
2021/12/10 02:53:48;;;;;;;776.35;51.42;;;0.50;99.90;;;;;;5033243;28;20056;-71
2021/12/10 02:56:52;;;;;;;292.73;20.92;;;0.50;99.90;;;;;;5033978;28;20083;-71
2021/12/10 02:59:56;;;;;;;269.85;28.83;;;0.40;99.90;;;;;;5032992;28;20045;-71
2021/12/10 03:03:02;;;;;;;116.90;16.40;;;0.30;99.90;;;;;;5032920;28;20491;-71
2021/12/10 03:06:11;;;;;;;24.38;11.75;;;0.30;99.90;;;;;;5033163;28;20045;-71
2021/12/10 03:09:17;;;;;;;16.35;9.25;;;0.30;99.90;;;;;;5031723;28;20530;-71
2021/12/10 03:12:22;;;;;;;18.38;9.77;;;0.40;99.90;;;;;;5031822;28;20040;-71
2021/12/10 03:15:28;;;;;;;52.22;30.30;;;0.50;99.90;;;;;;5029182;28;20052;-71
2021/12/10 03:18:35;;;;;;;67.28;41.85;;;0.50;99.90;;;;;;5027958;28;20040;-71
2021/12/10 03:21:42;;;;;;;39.45;24.38;;;0.60;99.90;;;;;;5032783;28;20597;-71
2021/12/10 03:24:47;;;;;;;14.88;9.50;;;0.60;99.90;;;;;;5029735;28;20827;-71
2021/12/10 03:27:51;;;;;;;11.70;7.05;;;0.60;99.90;;;;;;5033093;28;20101;-71
2021/12/10 03:30:55;;;;;;;37.13;22.23;;;0.60;99.90;;;;;;5031905;28;20036;-71
2021/12/10 03:34:00;;;;;;;576.20;41.13;;;0.50;99.90;;;;;;5032094;28;20388;-71
2021/12/10 03:37:05;;;;;;;618.75;44.08;;;0.30;99.90;;;;;;5032843;28;20491;-71
2021/12/10 03:40:13;;;;;;;669.70;42.33;;;0.20;99.90;;;;;;5032136;28;20472;-71
2021/12/10 03:43:18;;;;;;;467.00;37.60;;;-0.10;99.90;;;;;;5030728;28;20044;-71
2021/12/10 03:46:24;;;;;;;289.77;19.83;;;-0.20;99.90;;;;;;5032928;28;20049;-71
2021/12/10 03:49:30;;;;;;;325.08;21.85;;;-0.20;99.90;;;;;;5027351;28;20420;-71
2021/12/10 03:52:34;;;;;;;348.00;27.98;;;-0.20;99.90;;;;;;5027608;28;20048;-71
2021/12/10 03:55:39;;;;;;;238.05;21.67;;;-0.20;99.90;;;;;;5028772;28;20068;-71
2021/12/10 03:58:44;;;;;;;321.75;25.88;;;-0.20;99.90;;;;;;5030420;28;20060;-71
2021/12/10 04:01:56;;;;;;;129.77;12.15;;;-0.20;99.90;;;;;;5032048;28;20507;-71
2021/12/10 04:05:00;;;;;;;442.30;29.00;;;-0.10;99.90;;;;;;5031592;28;20412;-71
2021/12/10 04:08:04;;;;;;;147.77;11.43;;;-0.20;99.90;;;;;;5032593;28;20044;-71
2021/12/10 04:11:10;;;;;;;350.13;23.75;;;-0.30;99.90;;;;;;5032378;28;20507;-71
2021/12/10 04:14:14;;;;;;;404.00;27.58;;;-0.60;99.90;;;;;;5024752;28;20060;-71
2021/12/10 04:17:20;;;;;;;294.35;23.08;;;-0.80;99.90;;;;;;5028530;28;20053;-71
2021/12/10 04:20:27;;;;;;;102.25;11.10;;;-0.70;99.90;;;;;;5029775;28;20049;-71
2021/12/10 04:23:32;;;;;;;123.55;12.93;;;-0.70;99.90;;;;;;5031640;28;20053;-71
2021/12/10 04:26:36;;;;;;;121.10;20.10;;;-0.60;99.90;;;;;;5028047;28;20048;-71
2021/12/10 04:29:41;;;;;;;253.85;19.92;;;-0.60;99.90;;;;;;5031048;28;20052;-71
2021/12/10 04:32:45;;;;;;;249.20;24.05;;;-0.70;99.90;;;;;;5027202;28;20587;-71
2021/12/10 04:35:57;;;;;;;60.20;7.63;;;-0.70;99.90;;;;;;5031168;28;20056;-71
2021/12/10 04:39:03;;;;;;;501.60;34.70;;;-0.60;99.90;;;;;;5031307;28;20052;-71
2021/12/10 04:42:07;;;;;;;375.52;24.38;;;-0.60;99.90;;;;;;5031149;28;20060;-71
2021/12/10 04:45:12;;;;;;;332.75;26.75;;;-0.70;99.90;;;;;;5030927;28;20049;-70
2021/12/10 04:48:17;;;;;;;116.82;14.60;;;-0.70;99.90;;;;;;5029830;28;20044;-71
2021/12/10 04:51:26;;;;;;;370.73;30.40;;;-0.60;99.90;;;;;;5030956;28;20052;-71
2021/12/10 04:54:30;;;;;;;90.65;11.25;;;-0.60;99.90;;;;;;5025722;28;20053;-71
2021/12/10 04:57:34;;;;;;;307.60;24.30;;;-0.60;99.90;;;;;;5027184;28;20048;-71
2021/12/10 05:00:49;;;;;;;105.47;14.50;;;-0.60;99.90;;;;;;5028587;28;20072;-71
2021/12/10 05:03:53;;;;;;;271.80;18.80;;;-0.50;99.90;;;;;;5029637;28;20407;-71
2021/12/10 05:06:59;;;;;;;279.48;21.83;;;-0.50;99.90;;;;;;5031248;28;20121;-71
2021/12/10 05:10:08;;;;;;;93.60;12.00;;;-0.50;99.90;;;;;;5030850;28;20679;-71
2021/12/10 05:13:12;;;;;;;470.65;30.75;;;-0.50;99.90;;;;;;5024713;28;20045;-71
2021/12/10 05:16:17;;;;;;;522.30;42.97;;;-0.60;99.90;;;;;;5031049;28;20096;-71
2021/12/10 05:19:25;;;;;;;358.25;27.20;;;-0.60;99.90;;;;;;5024592;28;20052;-71
2021/12/10 05:22:29;;;;;;;609.75;47.40;;;-0.60;99.90;;;;;;5028607;28;20052;-71
2021/12/10 05:25:34;;;;;;;482.52;34.17;;;-0.50;99.90;;;;;;5025888;28;20048;-71
2021/12/10 05:28:38;;;;;;;266.98;22.35;;;-0.40;99.90;;;;;;5026563;28;20049;-71
2021/12/10 05:31:45;;;;;;;681.08;52.05;;;-0.30;99.90;;;;;;5029586;28;20049;-71
2021/12/10 05:34:49;;;;;;;46.05;10.02;;;-0.10;99.90;;;;;;5027615;28;20379;-71
2021/12/10 05:37:52;;;;;;;373.52;26.40;;;0.00;99.90;;;;;;5031031;28;20048;-71
2021/12/10 05:40:59;;;;;;;282.80;20.08;;;0.00;99.90;;;;;;5040714;28;20404;-71
2021/12/10 05:44:04;;;;;;;300.23;22.63;;;0.10;99.90;;;;;;5029612;28;20057;-71
2021/12/10 05:47:08;;;;;;;186.20;15.52;;;0.10;99.90;;;;;;5022800;28;20044;-71
2021/12/10 05:50:16;;;;;;;65.43;10.02;;;0.20;99.90;;;;;;5029376;28;20048;-71
2021/12/10 05:53:21;;;;;;;40.58;8.45;;;0.20;99.90;;;;;;5026289;28;20048;-71
2021/12/10 05:56:25;;;;;;;357.13;26.52;;;0.20;99.90;;;;;;5024621;28;20048;-71
2021/12/10 05:59:30;;;;;;;48.97;7.90;;;0.20;99.90;;;;;;5029106;28;20049;-71
2021/12/10 06:02:34;;;;;;;123.00;15.52;;;0.20;99.90;;;;;;5025312;28;20057;-71
2021/12/10 06:05:39;;;;;;;33.92;6.63;;;0.10;99.90;;;;;;5029644;28;20691;-71
2021/12/10 06:08:43;;;;;;;1876.32;159.63;;;0.20;99.90;;;;;;5026611;28;21475;-71
2021/12/10 06:11:47;;;;;;;265.65;24.08;;;0.20;99.90;;;;;;5029096;28;20056;-71
2021/12/10 06:14:51;;;;;;;45.55;6.68;;;0.30;99.90;;;;;;5029379;28;20048;-71
2021/12/10 06:17:56;;;;;;;293.50;21.25;;;0.30;99.90;;;;;;5028843;28;20052;-71
2021/12/10 06:21:00;;;;;;;42.47;7.00;;;0.30;99.90;;;;;;5029365;28;20056;-71
2021/12/10 06:24:06;;;;;;;564.65;43.42;;;0.30;99.90;;;;;;5032819;28;20128;-70
2021/12/10 06:27:10;;;;;;;290.83;18.70;;;0.20;99.90;;;;;;5034232;28;20064;-70
2021/12/10 06:30:18;;;;;;;117.97;9.23;;;0.10;99.90;;;;;;5033366;28;20044;-70
2021/12/10 06:33:25;;;;;;;100.18;11.65;;;0.10;99.90;;;;;;5033919;28;20052;-71
2021/12/10 06:36:30;;;;;;;56.92;7.47;;;0.00;99.90;;;;;;5033711;28;20037;-71
2021/12/10 06:39:34;;;;;;;295.25;21.50;;;-0.10;99.90;;;;;;5029784;28;20049;-71
2021/12/10 06:42:39;;;;;;;94.72;11.48;;;-0.10;99.90;;;;;;5029401;28;20048;-71
2021/12/10 06:45:46;;;;;;;105.03;11.43;;;0.00;99.90;;;;;;5029274;28;20040;-71
2021/12/10 06:48:52;;;;;;;41.75;7.95;;;0.00;99.90;;;;;;5033484;28;20352;-71
2021/12/10 06:52:00;;;;;;;176.35;13.88;;;0.10;99.90;;;;;;5031327;28;20076;-71
2021/12/10 06:55:05;;;;;;;324.42;22.73;;;0.10;99.90;;;;;;5032909;28;20475;-71
2021/12/10 06:58:10;;;;;;;261.92;19.27;;;0.20;99.90;;;;;;5027495;28;20041;-71
2021/12/10 07:01:21;;;;;;;170.25;14.80;;;0.30;99.90;;;;;;5032147;28;20056;-71
2021/12/10 07:04:25;;;;;;;482.17;34.47;;;0.20;99.90;;;;;;5033384;28;20503;-71
2021/12/10 07:07:31;;;;;;;94.43;10.68;;;0.20;99.90;;;;;;5029150;28;20383;-71
2021/12/10 07:10:36;;;;;;;318.92;22.90;;;0.20;99.90;;;;;;5031080;28;20049;-71
2021/12/10 07:13:44;;;;;;;405.13;27.45;;;0.30;99.90;;;;;;5029360;28;20048;-71
2021/12/10 07:16:49;;;;;;;181.77;17.52;;;0.30;99.90;;;;;;5033132;28;20052;-71
2021/12/10 07:19:54;;;;;;;269.83;23.98;;;0.40;99.90;;;;;;5031300;28;20053;-71
2021/12/10 07:22:58;;;;;;;310.63;20.80;;;0.50;99.90;;;;;;5031634;28;20499;-71
2021/12/10 07:26:03;;;;;;;528.42;35.50;;;0.50;99.90;;;;;;5029934;28;20056;-71
2021/12/10 07:29:08;;;;;;;133.30;14.95;;;0.50;99.90;;;;;;5029788;28;20049;-71
2021/12/10 07:32:13;;;;;;;424.45;33.75;;;0.60;99.90;;;;;;5027363;28;20045;-71
2021/12/10 07:35:19;;;;;;;307.58;27.40;;;0.60;99.90;;;;;;5021616;28;20056;-72
2021/12/10 07:38:23;;;;;;;621.63;38.97;;;0.60;99.90;;;;;;5024601;28;20483;-71
2021/12/10 07:41:27;;;;;;;577.53;42.22;;;0.40;99.90;;;;;;5028023;28;20063;-72
2021/12/10 07:44:31;;;;;;;1049.68;90.20;;;0.40;99.90;;;;;;5029963;28;20380;-71
2021/12/10 07:47:37;;;;;;;388.67;30.30;;;0.50;99.90;;;;;;5029860;28;20056;-71
2021/12/10 07:50:52;;;;;;;418.65;30.30;;;0.50;99.90;;;;;;5031586;28;20527;-71
2021/12/10 07:53:59;;;;;;;118.18;11.85;;;0.70;99.90;;;;;;5030427;28;20060;-71
2021/12/10 07:57:04;;;;;;;94.28;11.65;;;0.90;99.90;;;;;;5032200;28;20049;-71
2021/12/10 08:00:13;;;;;;;230.65;19.17;;;0.90;99.90;;;;;;5024091;28;20049;-71
2021/12/10 08:03:18;;;;;;;428.13;29.75;;;0.90;99.90;;;;;;5025748;28;20044;-72
2021/12/10 08:06:22;;;;;;;676.17;48.95;;;0.80;99.90;;;;;;5030914;28;20352;-72
2021/12/10 08:09:26;;;;;;;721.75;50.58;;;0.70;99.90;;;;;;5023261;28;20060;-72
2021/12/10 08:12:30;;;;;;;808.63;53.50;;;0.60;99.90;;;;;;5024785;28;20034;-71
2021/12/10 08:15:34;;;;;;;840.05;62.13;;;0.50;99.90;;;;;;5030803;28;20064;-71
2021/12/10 08:18:45;;;;;;;708.00;48.35;;;0.50;99.90;;;;;;5027983;28;20392;-71
2021/12/10 08:21:50;;;;;;;926.67;62.33;;;0.40;99.90;;;;;;5026639;28;20048;-71
2021/12/10 08:24:53;;;;;;;968.17;67.32;;;0.40;99.90;;;;;;5029616;28;20056;-71
2021/12/10 08:27:59;;;;;;;406.48;29.30;;;0.40;99.90;;;;;;5027012;28;20064;-71
2021/12/10 08:31:05;;;;;;;794.35;60.17;;;0.60;99.90;;;;;;5032625;28;20056;-71
2021/12/10 08:34:09;;;;;;;323.75;26.90;;;0.80;99.90;;;;;;5026208;28;20380;-71
2021/12/10 08:37:14;;;;;;;441.38;33.70;;;1.00;99.90;;;;;;5029185;28;20495;-71
2021/12/10 08:40:40;;;;;;;368.35;32.03;;;1.10;99.90;;;;;;5023434;28;20052;-72
2021/12/10 08:43:45;;;;;;;587.72;43.03;;;1.10;99.90;;;;;;5027150;28;20049;-71
2021/12/10 08:46:49;;;;;;;893.55;69.28;;;1.20;99.90;;;;;;5025449;28;20902;-71
2021/12/10 08:49:53;;;;;;;394.23;42.30;;;1.10;99.90;;;;;;5029779;28;20036;-71
2021/12/10 08:53:02;;;;;;;490.40;40.75;;;1.20;99.90;;;;;;5029333;28;20044;-71
2021/12/10 08:56:07;;;;;;;891.50;76.43;;;1.20;99.90;;;;;;5030000;28;20052;-71
2021/12/10 08:59:13;;;;;;;814.40;73.35;;;1.30;99.90;;;;;;5030728;28;20044;-71
2021/12/10 09:02:18;;;;;;;1220.63;100.80;;;1.20;99.90;;;;;;5029834;28;20124;-72
2021/12/10 09:05:23;;;;;;;1321.55;111.53;;;1.10;99.90;;;;;;5029223;28;20049;-71
2021/12/10 09:08:27;;;;;;;1360.65;103.20;;;1.00;99.90;;;;;;5026258;28;20064;-71
2021/12/10 09:11:32;;;;;;;954.58;74.57;;;1.10;99.90;;;;;;5029135;28;20378;-71
2021/12/10 09:14:42;;;;;;;434.45;41.78;;;1.30;99.90;;;;;;5024960;28;20049;-71
2021/12/10 09:17:47;;;;;;;907.65;74.72;;;1.50;99.90;;;;;;5024902;28;20032;-71
2021/12/10 09:20:55;;;;;;;570.72;49.38;;;1.60;99.90;;;;;;5025188;28;20044;-71
2021/12/10 09:24:05;;;;;;;561.55;47.00;;;1.80;99.90;;;;;;5029026;28;20049;-71
2021/12/10 09:27:12;;;;;;;400.60;40.05;;;2.00;99.90;;;;;;5030409;28;20515;-72
2021/12/10 09:30:20;;;;;;;954.72;68.38;;;2.00;99.90;;;;;;5022889;28;20586;-71
2021/12/10 09:33:26;;;;;;;1162.20;90.30;;;1.90;99.90;;;;;;5026615;28;20036;-71
2021/12/10 09:36:30;;;;;;;802.17;65.68;;;1.80;99.90;;;;;;5030126;28;20052;-71
2021/12/10 09:39:36;;;;;;;762.47;58.00;;;2.00;99.90;;;;;;5027987;28;20072;-72
2021/12/10 09:42:41;;;;;;;725.55;64.30;;;2.00;99.90;;;;;;5028576;28;20060;-72
2021/12/10 09:45:52;;;;;;;396.48;36.05;;;2.20;99.90;;;;;;5028449;28;20128;-71
2021/12/10 09:48:56;;;;;;;520.08;48.30;;;2.30;99.90;;;;;;5033018;28;20504;-71
2021/12/10 09:52:05;;;;;;;59.28;22.65;;;2.50;99.90;;;;;;5022718;28;20048;-72
2021/12/10 09:55:14;;;;;;;90.43;24.77;;;2.90;99.90;;;;;;5020603;28;20049;-72
2021/12/10 09:58:20;;;;;;;506.77;40.67;;;2.70;99.90;;;;;;5022282;28;20044;-71
2021/12/10 10:01:30;;;;;;;952.13;86.78;;;2.90;99.90;;;;;;5023744;28;20044;-71
2021/12/10 10:04:37;;;;;;;653.72;60.67;;;2.90;99.90;;;;;;5026591;28;20044;-72
2021/12/10 10:07:42;;;;;;;124.07;22.17;;;2.80;99.90;;;;;;5027356;28;20052;-72
2021/12/10 10:10:50;;;;;;;892.13;72.00;;;3.10;99.90;;;;;;5027940;28;20389;-72
2021/12/10 10:13:56;;;;;;;55.72;21.88;;;3.20;99.90;;;;;;5025333;28;20384;-72
2021/12/10 10:17:01;;;;;;;49.72;24.00;;;3.50;99.90;;;;;;5026807;28;20048;-72
2021/12/10 10:20:07;;;;;;;27.73;15.10;;;3.90;99.90;;;;;;5022505;28;20052;-72
2021/12/10 10:23:12;;;;;;;25.77;14.48;;;3.70;99.90;;;;;;5027362;28;20060;-72
2021/12/10 10:26:32;;;;;;;27.35;15.15;;;3.80;99.90;;;;;;5027353;28;20056;-72
2021/12/10 10:29:39;;;;;;;25.45;14.55;;;3.90;99.90;;;;;;5027332;28;20072;-71
2021/12/10 10:32:45;;;;;;;21.85;12.18;;;3.80;99.90;;;;;;5024122;28;20045;-72
2021/12/10 10:35:57;;;;;;;17.70;10.90;;;3.90;99.90;;;;;;5025201;28;20041;-72
2021/12/10 10:39:15;;;;;;;16.92;10.93;;;3.80;99.90;;;;;;5028183;28;20044;-72
2021/12/10 10:42:25;;;;;;;13.80;8.93;;;3.90;99.90;;;;;;5029715;28;20048;-72
2021/12/10 10:45:33;;;;;;;12.40;7.43;;;3.90;99.90;;;;;;5022605;28;20052;-72
2021/12/10 10:48:37;;;;;;;9.63;6.53;;;3.90;99.90;;;;;;5020982;28;20053;-72
2021/12/10 10:51:41;;;;;;;9.52;6.13;;;4.10;99.90;;;;;;5025641;28;20026;-72
2021/12/10 10:54:47;;;;;;;10.63;6.28;;;4.10;99.90;;;;;;5025038;28;20033;-72
2021/12/10 10:58:10;;;;;;;9.73;6.50;;;4.20;99.90;;;;;;5026805;28;20044;-72
2021/12/10 11:01:25;;;;;;;7.25;5.35;;;4.10;99.90;;;;;;5029499;28;20630;-72
2021/12/10 11:04:36;;;;;;;7.40;5.45;;;4.20;99.90;;;;;;5028469;28;20029;-71
2021/12/10 11:07:51;;;;;;;8.15;5.05;;;4.20;99.90;;;;;;5028731;28;20049;-72
2021/12/10 11:11:25;;;;;;;6.30;4.43;;;4.10;99.90;;;;;;5024790;28;20045;-72
2021/12/10 11:14:36;;;;;;;6.05;4.50;;;4.20;99.90;;;;;;5026088;28;20269;-72
2021/12/10 11:17:50;;;;;;;6.22;4.00;;;4.30;99.90;;;;;;5031981;28;20042;-72
2021/12/10 11:20:55;;;;;;;5.97;4.13;;;4.20;99.90;;;;;;5031274;28;20041;-71
2021/12/10 11:24:11;;;;;;;6.00;4.50;;;4.20;99.90;;;;;;5025740;28;20045;-72
2021/12/10 11:27:24;;;;;;;6.57;4.20;;;4.10;99.90;;;;;;5029359;28;20041;-72
2021/12/10 11:30:29;;;;;;;7.05;4.93;;;4.20;99.90;;;;;;5025666;28;20041;-72
2021/12/10 11:33:41;;;;;;;7.70;5.05;;;4.20;99.90;;;;;;5027039;28;20041;-72
2021/12/10 11:36:50;;;;;;;12.25;6.47;;;4.20;99.90;;;;;;5029843;28;20049;-72
2021/12/10 11:39:54;;;;;;;8.23;5.38;;;4.10;99.90;;;;;;5032543;28;20052;-72
2021/12/10 11:43:04;;;;;;;8.63;5.55;;;4.10;99.90;;;;;;5032200;28;20049;-73
2021/12/10 11:49:32;;;;;;;6.82;4.78;;;4.10;99.90;;;;;;5032252;28;20060;-72
2021/12/10 11:52:38;;;;;;;11.35;6.25;;;4.20;99.90;;;;;;5031835;28;20037;-72
2021/12/10 11:56:00;;;;;;;12.35;8.45;;;4.20;99.90;;;;;;5027976;28;20372;-72
2021/12/10 11:59:14;;;;;;;6.30;4.30;;;4.10;99.90;;;;;;5032171;28;20040;-72
2021/12/10 12:02:22;;;;;;;8.95;5.28;;;4.20;99.90;;;;;;5026279;28;20050;-72
2021/12/10 12:05:34;;;;;;;8.15;4.57;;;4.20;99.90;;;;;;5029165;28;20037;-72
2021/12/10 12:08:39;;;;;;;8.13;4.93;;;4.10;99.90;;;;;;5030948;28;20042;-72
2021/12/10 12:12:14;;;;;;;6.88;4.57;;;4.10;99.90;;;;;;5029699;28;20041;-71
2021/12/10 12:15:24;;;;;;;6.30;4.47;;;4.20;99.90;;;;;;5022540;28;20342;-73
2021/12/10 12:18:42;;;;;;;8.23;4.82;;;4.20;99.90;;;;;;5030347;28;20037;-72
2021/12/10 12:25:27;;;;;;;;;;;4.30;99.90;;;;;;5022566;28;20041;-72
2021/12/10 12:28:31;;;;;;;7.68;4.40;;;4.30;99.90;;;;;;5028331;28;19920;-72
2021/12/10 12:31:39;;;;;;;6.60;4.45;;;4.40;99.90;;;;;;5033517;28;20045;-72
2021/12/10 12:34:43;;;;;;;8.82;5.53;;;4.40;99.90;;;;;;5033595;28;20487;-72
2021/12/10 12:37:49;;;;;;;9.43;5.30;;;4.40;99.90;;;;;;5030472;28;20049;-72
2021/12/10 12:41:08;;;;;;;9.73;4.97;;;4.30;99.90;;;;;;5027939;28;20041;-72
2021/12/10 12:44:35;;;;;;;8.02;5.10;;;4.30;99.90;;;;;;5031570;28;20045;-72
2021/12/10 12:47:41;;;;;;;8.35;5.93;;;4.50;99.90;;;;;;5027249;28;20037;-72
2021/12/10 12:50:46;;;;;;;9.52;5.82;;;4.40;99.90;;;;;;5030932;28;20045;-72
2021/12/10 12:53:52;;;;;;;8.20;5.80;;;4.30;99.90;;;;;;5027055;28;20033;-72
2021/12/10 12:56:57;;;;;;;9.23;5.88;;;4.40;99.90;;;;;;5029629;28;20045;-72
2021/12/10 13:00:22;;;;;;;9.57;6.40;;;4.60;99.90;;;;;;5030418;28;20041;-73
2021/12/10 13:03:36;;;;;;;7.35;4.95;;;4.60;99.90;;;;;;5029006;28;20369;-72
2021/12/10 13:06:51;;;;;;;8.93;5.40;;;4.50;99.90;;;;;;5027313;28;20049;-72
2021/12/10 13:09:58;;;;;;;8.43;5.22;;;4.70;99.90;;;;;;5022630;28;20461;-72
2021/12/10 13:13:14;;;;;;;9.60;5.10;;;4.60;99.90;;;;;;5029553;28;20042;-72
2021/12/10 13:16:43;;;;;;;22.27;11.63;;;4.50;99.90;;;;;;5043609;28;20045;-71
2021/12/10 13:19:48;;;;;;;11.00;5.60;;;4.60;99.90;;;;;;5028024;28;20483;-72
2021/12/10 13:22:57;;;;;;;14.10;7.88;;;4.80;99.90;;;;;;5028730;28;20057;-73
2021/12/10 13:26:06;;;;;;;22.63;11.48;;;4.90;99.90;;;;;;5027801;28;20487;-72
2021/12/10 13:29:10;;;;;;;12.77;8.00;;;4.90;99.90;;;;;;5029073;28;20056;-72
2021/12/10 13:32:15;;;;;;;10.45;5.88;;;4.80;99.90;;;;;;5029777;28;20044;-71
2021/12/10 13:35:23;;;;;;;7.35;4.32;;;4.80;99.90;;;;;;5021849;28;20048;-73
2021/12/10 13:38:29;;;;;;;6.57;2.88;;;5.00;99.90;;;;;;5028643;28;20029;-72
2021/12/10 13:41:33;;;;;;;7.70;3.40;;;5.20;99.90;;;;;;5026075;28;20045;-72
2021/12/10 13:44:45;;;;;;;8.07;2.58;;;5.40;99.90;;;;;;5029362;28;20808;-72
2021/12/10 13:48:01;;;;;;;4.82;2.75;;;5.60;99.90;;;;;;5027453;28;20056;-72
2021/12/10 13:51:08;;;;;;;5.35;2.97;;;5.70;99.90;;;;;;5029472;28;20042;-72
2021/12/10 13:54:19;;;;;;;6.00;2.95;;;5.60;99.90;;;;;;5022582;28;20033;-73
2021/12/10 13:57:23;;;;;;;6.15;2.50;;;5.50;99.90;;;;;;5024044;28;20389;-72
2021/12/10 14:00:27;;;;;;;8.35;2.67;;;5.60;99.90;;;;;;5023623;28;20045;-72
2021/12/10 14:03:46;;;;;;;11.40;3.10;;;5.50;99.90;;;;;;5026609;28;20042;-72
2021/12/10 14:06:52;;;;;;;6.72;3.03;;;5.60;99.90;;;;;;5025572;28;20495;-73
2021/12/10 14:09:58;;;;;;;6.90;3.17;;;5.50;99.90;;;;;;5019384;28;20038;-72
2021/12/10 14:13:06;;;;;;;5.05;3.38;;;5.50;99.90;;;;;;5023759;28;20050;-71
2021/12/10 14:16:12;;;;;;;5.68;3.05;;;5.50;99.90;;;;;;5029655;28;20037;-72
2021/12/10 14:19:39;;;;;;;5.30;3.08;;;5.60;99.90;;;;;;5024479;28;20457;-71
2021/12/10 14:22:48;;;;;;;4.70;2.85;;;5.50;99.90;;;;;;5025543;28;20049;-72
2021/12/10 14:25:57;;;;;;;4.38;2.60;;;5.20;99.90;;;;;;5020849;28;20045;-73
2021/12/10 14:29:13;;;;;;;5.45;3.40;;;5.30;99.90;;;;;;5028264;28;20041;-72
2021/12/10 14:32:25;;;;;;;4.97;3.35;;;5.20;99.90;;;;;;5027014;28;20045;-73
2021/12/10 14:35:57;;;;;;;5.75;2.80;;;5.20;99.90;;;;;;5026053;28;20037;-72
2021/12/10 14:39:02;;;;;;;6.85;3.63;;;5.10;99.90;;;;;;5022271;28;20353;-72
2021/12/10 14:42:09;;;;;;;5.35;2.40;;;5.10;99.90;;;;;;5027854;28;20815;-71
2021/12/10 14:45:13;;;;;;;10.68;3.22;;;5.30;99.90;;;;;;5029801;28;20037;-72
2021/12/10 14:48:16;;;;;;;5.78;3.58;;;5.30;99.90;;;;;;5023986;28;20044;-72
2021/12/10 14:51:20;;;;;;;7.05;4.07;;;5.20;99.90;;;;;;5028734;28;20033;-72
2021/12/10 14:54:25;;;;;;;3.58;2.33;;;5.00;99.90;;;;;;5026717;28;20037;-72
2021/12/10 14:57:53;;;;;;;4.90;2.80;;;5.00;99.90;;;;;;5026762;28;20037;-73
2021/12/10 15:01:08;;;;;;;4.07;2.67;;;5.00;99.90;;;;;;5030310;28;20045;-72
2021/12/10 15:04:18;;;;;;;5.47;2.97;;;4.90;99.90;;;;;;5028857;28;20037;-72
2021/12/10 15:07:29;;;;;;;4.07;2.45;;;4.90;99.90;;;;;;5029034;28;20038;-72
2021/12/10 15:10:43;;;;;;;5.40;1.77;;;4.90;99.90;;;;;;5029276;28;20045;-72
2021/12/10 15:13:48;;;;;;;3.08;2.10;;;5.10;99.90;;;;;;5030207;28;20037;-72
2021/12/10 15:16:58;;;;;;;5.50;2.30;;;5.10;99.90;;;;;;5031825;28;20041;-74
2021/12/10 15:20:26;;;;;;;2.53;1.90;;;5.10;99.90;;;;;;5023004;28;20038;-73
2021/12/10 15:23:30;;;;;;;3.33;1.75;;;5.10;99.90;;;;;;5031748;28;20053;-72
2021/12/10 15:27:09;;;;;;;2.67;1.42;;;5.00;99.90;;;;;;5030173;28;20045;-72
2021/12/10 15:30:19;;;;;;;2.15;1.50;;;4.90;99.90;;;;;;5029278;28;20129;-72
2021/12/10 15:33:25;;;;;;;3.30;1.73;;;4.90;99.90;;;;;;5032212;28;20029;-72
2021/12/10 15:36:30;;;;;;;2.63;1.60;;;5.00;99.90;;;;;;5031154;28;20037;-72
2021/12/10 15:39:40;;;;;;;3.08;1.52;;;4.90;99.90;;;;;;5028635;28;20053;-72
2021/12/10 15:42:44;;;;;;;2.20;1.50;;;4.90;99.90;;;;;;5032214;28;20041;-72
2021/12/10 15:45:55;;;;;;;2.80;1.55;;;4.70;99.90;;;;;;5028067;28;20046;-72
2021/12/10 15:49:04;;;;;;;2.25;1.40;;;4.60;99.90;;;;;;5029814;28;20042;-72
2021/12/10 15:52:14;;;;;;;5.35;2.38;;;4.50;99.90;;;;;;5021923;28;20042;-73
2021/12/10 15:55:18;;;;;;;1.75;1.50;;;4.40;99.90;;;;;;5031139;28;20041;-73
2021/12/10 15:58:26;;;;;;;3.78;2.13;;;4.30;99.90;;;;;;5027668;28;20045;-72
2021/12/10 16:01:40;;;;;;;7.95;2.47;;;4.30;99.90;;;;;;5030457;28;20049;-72
2021/12/10 16:04:48;;;;;;;6.20;2.97;;;4.20;99.90;;;;;;5030210;28;20656;-72
2021/12/10 16:07:56;;;;;;;8.82;4.88;;;4.20;99.90;;;;;;5028239;28;20038;-72
2021/12/10 16:11:01;;;;;;;3.75;2.15;;;4.10;99.90;;;;;;5027352;28;20046;-72
2021/12/10 16:14:07;;;;;;;4.85;3.05;;;4.10;99.90;;;;;;5032503;28;20038;-72
2021/12/10 16:17:13;;;;;;;6.80;3.40;;;4.10;99.90;;;;;;5032107;28;20496;-72
2021/12/10 16:20:31;;;;;;;3.33;2.45;;;4.10;99.90;;;;;;5030728;28;20053;-71
2021/12/10 16:23:42;;;;;;;4.25;1.40;;;4.00;99.90;;;;;;5031338;28;20050;-71
2021/12/10 16:26:54;;;;;;;2.60;1.85;;;4.00;99.90;;;;;;5029460;28;20045;-71